Spokeville, Wisconsin
Current Conditions -  °F | °C
As of 5:54 AM on Sunday 25 Jan 2015 (Local Time) from KMFI Reporting Station
Overcast Overcast  
Wind Chill:   Ceiling: 4600
Heat Index: 22°   Visibility: 10mi
Dew Point: 13°   Wind: 16mph
Humidity: 68%   Direction: 70°ENE
Pressure: 29.83"   Gusts: NA
Location:  44.7314°N, 90.4931°W
Report Text: KMFI 251154Z AUTO 07014KT 10SM SCT020 OVC046 M06/M11 A2983 RMK AO2 SLP120 T10561106 10000 21056 53024
Loading
Personal Weather Stations






























Interactive Weather Map New forecast layout! Learn more

10-Day Weather Forecast

Advertisements
Track Severe Weather on mobile